createdAt,value
2022-11-10T00:03:36.222Z,100254.91
2022-11-10T00:08:57.222Z,100256.88
2022-11-10T00:14:36.207Z,100259.84
2022-11-10T00:19:59.127Z,100263.78
2022-11-10T00:25:20.609Z,100270.84
2022-11-10T00:30:46.540Z,100283.84
2022-11-10T00:36:10.109Z,100294.75
2022-11-10T00:41:31.560Z,100300.66
2022-11-10T00:46:52.923Z,100317.47
2022-11-10T00:52:15.704Z,100308.88
2022-11-10T00:57:37.028Z,100324.03
2022-11-10T01:02:58.748Z,100341.44
2022-11-10T01:08:21.198Z,100342.91
2022-11-10T01:13:43.459Z,100342.72
2022-11-10T01:19:04.653Z,100343.72
2022-11-10T01:24:27.406Z,100355.84
2022-11-10T01:29:48.551Z,100351.91
2022-11-10T01:35:10.501Z,100357.09
2022-11-10T01:40:39.729Z,100364.50
2022-11-10T01:46:01.780Z,100370.56
2022-11-10T01:51:26.109Z,100374.91
2022-11-10T01:56:58.922Z,100377.03
2022-11-10T02:02:23.023Z,100377.03
2022-11-10T02:07:44.469Z,100375.00
2022-11-10T02:13:13.257Z,100384.19
2022-11-10T02:18:34.544Z,100387.97
2022-11-10T02:23:57.260Z,100410.16
2022-11-10T02:29:18.728Z,100409.78
2022-11-10T02:34:42.543Z,100404.34
2022-11-10T02:40:05.711Z,100416.69
2022-11-10T02:45:26.913Z,100421.06
2022-11-10T02:50:50.371Z,100419.72
2022-11-10T02:56:13.408Z,100433.63
2022-11-10T03:01:34.798Z,100425.91
2022-11-10T03:06:56.119Z,100440.47
2022-11-10T03:12:19.141Z,100442.78
2022-11-10T03:17:40.323Z,100454.06
2022-11-10T03:23:02.843Z,100468.34
2022-11-10T03:28:25.496Z,100478.84
2022-11-10T03:33:46.942Z,100477.88
2022-11-10T03:39:08.316Z,100493.44
2022-11-10T03:44:31.143Z,100484.41
2022-11-10T03:49:52.579Z,100495.22
2022-11-10T03:55:17.847Z,100496.63
2022-11-10T04:00:43.248Z,100509.25
2022-11-10T04:06:22.468Z,100512.47
2022-11-10T04:12:01.505Z,100519.38
2022-11-10T04:17:24.242Z,100527.72
2022-11-10T04:23:03.287Z,100540.31
2022-11-10T04:28:24.776Z,100542.28
2022-11-10T04:33:48.192Z,100552.25
2022-11-10T04:39:10.007Z,100568.31
2022-11-10T04:44:31.515Z,100578.38
2022-11-10T04:49:54.129Z,100572.97
2022-11-10T04:55:16.172Z,100585.09
2022-11-10T05:00:38.073Z,100593.66
2022-11-10T05:06:00.452Z,100596.72
2022-11-10T05:11:21.968Z,100607.78
2022-11-10T05:16:43.448Z,100602.22
2022-11-10T05:22:07.630Z,100607.28
2022-11-10T05:27:29.981Z,100609.06
2022-11-10T05:32:51.238Z,100613.19
2022-11-10T05:38:14.068Z,100618.00
2022-11-10T05:43:35.397Z,100630.66
2022-11-10T05:48:56.725Z,100653.06
2022-11-10T05:54:19.615Z,100661.09
2022-11-10T05:59:40.793Z,100667.75
2022-11-10T06:05:04.628Z,100690.56
2022-11-10T06:10:27.365Z,100696.09
2022-11-10T06:15:50.594Z,100713.38
2022-11-10T06:21:12.129Z,100732.75
2022-11-10T06:26:34.940Z,100737.56
2022-11-10T06:31:56.218Z,100743.38
2022-11-10T06:37:17.735Z,100746.53
2022-11-10T06:42:40.535Z,100772.13
2022-11-10T06:48:03.047Z,100782.91
2022-11-10T06:53:27.026Z,100788.00
2022-11-10T06:58:50.244Z,100814.59
2022-11-10T07:04:19.733Z,100825.66
2022-11-10T07:09:42.361Z,100838.09
2022-11-10T07:15:06.806Z,100842.13
2022-11-10T07:20:28.409Z,100854.16
2022-11-10T07:25:49.599Z,100858.72
2022-11-10T07:31:12.603Z,100865.34
2022-11-10T07:36:33.684Z,100879.88
2022-11-10T07:41:55.200Z,100885.97
2022-11-10T07:47:18.039Z,100894.25
2022-11-10T07:52:39.440Z,100901.59
2022-11-10T07:58:01.241Z,100904.50
2022-11-10T08:03:23.989Z,100918.78
2022-11-10T08:08:47.029Z,100923.88
2022-11-10T08:14:08.318Z,100940.09
2022-11-10T08:19:31.050Z,100952.53
2022-11-10T08:24:52.489Z,100953.78
2022-11-10T08:30:14.314Z,100965.97
2022-11-10T08:35:38.414Z,100977.16
2022-11-10T08:41:02.147Z,100998.06
2022-11-10T08:46:23.129Z,101004.03
2022-11-10T08:51:45.930Z,100995.31
2022-11-10T08:57:08.503Z,101002.50
2022-11-10T09:02:30.401Z,101011.78
2022-11-10T09:07:53.131Z,101021.06
2022-11-10T09:13:15.755Z,101017.88
2022-11-10T09:18:37.954Z,101026.44
2022-11-10T09:24:00.439Z,101041.97
2022-11-10T09:29:22.891Z,101049.69
2022-11-10T09:34:45.650Z,101048.19
2022-11-10T09:40:17.878Z,101061.34
2022-11-10T09:45:41.631Z,101060.03
2022-11-10T09:51:05.675Z,101064.72
2022-11-10T09:56:33.162Z,101080.03
2022-11-10T10:01:59.135Z,101045.94
2022-11-10T10:07:24.111Z,101069.63
2022-11-10T10:13:01.716Z,101060.66
2022-11-10T10:18:30.572Z,101069.16
2022-11-10T10:24:09.551Z,101063.19
2022-11-10T10:29:37.882Z,101063.91
2022-11-10T10:34:59.253Z,101070.63
2022-11-10T10:40:23.314Z,101076.81
2022-11-10T10:46:04.248Z,101044.66
2022-11-10T10:51:31.952Z,101072.41
2022-11-10T10:57:02.227Z,101078.38
2022-11-10T11:02:28.036Z,101090.28
2022-11-10T11:07:56.203Z,101073.59
2022-11-10T11:13:25.554Z,101094.75
2022-11-10T11:18:48.307Z,101097.31
2022-11-10T11:24:20.990Z,101067.50
2022-11-10T11:30:05.498Z,101092.63
2022-11-10T11:35:33.694Z,101085.88
2022-11-10T11:41:09.775Z,101085.06
2022-11-10T11:46:38.135Z,101093.94
2022-11-10T11:52:08.727Z,101102.25
2022-11-10T11:57:39.997Z,101097.09
2022-11-10T12:03:39.956Z,101097.78
2022-11-10T12:09:07.056Z,101100.72
2022-11-10T12:14:36.711Z,101100.94
2022-11-10T12:20:02.844Z,101120.41
2022-11-10T12:25:29.803Z,101120.84
2022-11-10T12:30:57.677Z,101103.53
2022-11-10T12:36:23.917Z,101105.06
2022-11-10T12:41:48.052Z,101112.91
2022-11-10T12:47:13.321Z,101114.47
2022-11-10T12:52:38.528Z,101120.75
2022-11-10T12:58:01.967Z,101114.13
2022-11-10T13:03:29.135Z,101109.38
2022-11-10T13:08:50.723Z,101115.72
2022-11-10T13:14:25.072Z,101128.97
2022-11-10T13:19:53.406Z,101125.88
2022-11-10T13:26:00.716Z,101125.81
2022-11-10T13:31:53.032Z,101145.00
2022-11-10T13:37:51.800Z,101165.34
2022-11-10T13:43:27.234Z,101158.41
2022-11-10T13:49:03.277Z,101167.94
2022-11-10T13:54:51.049Z,101175.19
2022-11-10T14:00:27.247Z,101176.78
2022-11-10T14:06:09.072Z,101170.28
2022-11-10T14:11:35.760Z,101185.78
2022-11-10T14:16:57.578Z,101192.06
2022-11-10T14:22:24.083Z,101201.31
2022-11-10T14:27:45.705Z,101202.50
2022-11-10T14:33:10.776Z,101200.63
2022-11-10T14:38:35.904Z,101213.47
2022-11-10T14:44:01.727Z,101223.28
2022-11-10T14:49:24.909Z,101225.50
2022-11-10T14:54:47.745Z,101224.28
2022-11-10T15:00:15.540Z,101223.34
2022-11-10T15:05:36.876Z,101232.81
2022-11-10T15:10:59.387Z,101247.81
2022-11-10T15:16:26.117Z,101250.91
2022-11-10T15:21:47.950Z,101271.06
2022-11-10T15:27:14.913Z,101266.91
2022-11-10T15:32:37.547Z,101265.00
2022-11-10T15:38:03.358Z,101269.16
2022-11-10T15:43:29.109Z,101274.28
2022-11-10T15:48:51.956Z,101287.88
2022-11-10T15:54:13.179Z,101296.34
2022-11-10T15:59:36.087Z,101292.03
2022-11-10T16:05:00.046Z,101299.22
2022-11-10T16:10:22.132Z,101308.38
2022-11-10T16:15:45.182Z,101315.72
2022-11-10T16:21:06.860Z,101324.63
2022-11-10T16:26:28.331Z,101325.16
2022-11-10T16:31:51.126Z,101332.53
2022-11-10T16:37:13.765Z,101327.97
2022-11-10T16:42:35.272Z,101314.78
2022-11-10T16:47:58.686Z,101330.03
2022-11-10T16:53:23.922Z,101338.75
2022-11-10T16:58:45.087Z,101332.38
2022-11-10T17:04:09.857Z,101344.47
2022-11-10T17:09:31.732Z,101348.59
2022-11-10T17:14:53.178Z,101360.66
2022-11-10T17:20:21.216Z,101370.31
2022-11-10T17:25:43.034Z,101381.13
2022-11-10T17:31:04.345Z,101380.72
2022-11-10T17:36:27.110Z,101379.31
2022-11-10T17:41:48.909Z,101377.94
2022-11-10T17:47:10.322Z,101362.94
2022-11-10T17:52:33.279Z,101373.28
2022-11-10T17:57:54.917Z,101386.16
2022-11-10T18:03:17.750Z,101393.88
2022-11-10T18:08:40.340Z,101410.25
2022-11-10T18:14:02.321Z,101417.44
2022-11-10T18:19:23.680Z,101425.41
2022-11-10T18:24:46.725Z,101428.94
2022-11-10T18:30:09.255Z,101431.41
2022-11-10T18:35:31.162Z,101440.28
2022-11-10T18:40:53.997Z,101432.22
2022-11-10T18:46:15.201Z,101430.66
2022-11-10T18:51:36.746Z,101429.66
2022-11-10T18:56:59.197Z,101419.47
2022-11-10T19:02:20.657Z,101430.88
2022-11-10T19:07:42.091Z,101425.44
2022-11-10T19:13:04.858Z,101417.69
2022-11-10T19:18:26.253Z,101431.66
2022-11-10T19:23:47.694Z,101439.69
2022-11-10T19:29:10.586Z,101435.13
2022-11-10T19:34:31.925Z,101446.41
2022-11-10T19:39:53.334Z,101454.28
2022-11-10T19:45:19.324Z,101453.09
2022-11-10T19:50:45.164Z,101472.59
2022-11-10T19:56:10.926Z,101485.03
2022-11-10T20:01:33.621Z,101489.56
2022-11-10T20:07:09.215Z,101489.00
2022-11-10T20:12:34.464Z,101494.25
2022-11-10T20:17:57.152Z,101509.22
2022-11-10T20:23:19.751Z,101498.94
2022-11-10T20:28:44.678Z,101491.91
2022-11-10T20:34:07.117Z,101506.13
2022-11-10T20:39:28.675Z,101496.44
2022-11-10T20:44:50.139Z,101495.34
2022-11-10T20:50:17.123Z,101494.66
2022-11-10T20:55:55.657Z,101499.44
2022-11-10T21:01:18.631Z,101496.47
2022-11-10T21:06:41.339Z,101500.41
2022-11-10T21:12:20.535Z,101499.47
2022-11-10T21:17:44.253Z,101494.44
2022-11-10T21:23:07.126Z,101500.66
2022-11-10T21:28:28.578Z,101500.66
2022-11-10T21:33:50.190Z,101500.91
2022-11-10T21:39:12.850Z,101498.28
2022-11-10T21:44:39.159Z,101497.91
2022-11-10T21:50:00.585Z,101504.94
2022-11-10T21:55:23.243Z,101530.53
2022-11-10T22:00:45.076Z,101536.69
2022-11-10T22:06:07.353Z,101541.50
2022-11-10T22:11:47.884Z,101548.41
2022-11-10T22:17:32.435Z,101548.97
2022-11-10T22:22:53.949Z,101541.38
2022-11-10T22:28:16.785Z,101529.38
2022-11-10T22:33:40.329Z,101520.09
2022-11-10T22:39:03.615Z,101519.59
2022-11-10T22:44:26.718Z,101525.09
2022-11-10T22:49:47.853Z,101542.88
2022-11-10T22:55:09.627Z,101535.13
2022-11-10T23:00:32.239Z,101526.63
2022-11-10T23:05:56.455Z,101528.31
2022-11-10T23:11:19.442Z,101526.75
2022-11-10T23:16:42.383Z,101532.31
2022-11-10T23:22:03.715Z,101533.31
2022-11-10T23:27:25.188Z,101541.88
2022-11-10T23:32:47.876Z,101550.97
2022-11-10T23:38:09.223Z,101558.41
2022-11-10T23:43:35.754Z,101563.88
2022-11-10T23:48:58.420Z,101564.31
2022-11-10T23:54:19.974Z,101572.31
2022-11-10T23:59:41.179Z,101588.16
